sensor_id;sensor_type;location;lat;lon;timestamp;pressure;altitude;pressure_sealevel;temperature;humidity
63111;BME280;49201;53.426;10.300;2022-12-26T00:01:21;100851.69;;;6.43;100.00
63111;BME280;49201;53.426;10.300;2022-12-26T00:03:48;100855.94;;;6.44;100.00
63111;BME280;49201;53.426;10.300;2022-12-26T00:06:16;100847.47;;;6.44;100.00
63111;BME280;49201;53.426;10.300;2022-12-26T00:08:42;100843.28;;;6.46;100.00
63111;BME280;49201;53.426;10.300;2022-12-26T00:11:08;100845.00;;;6.47;100.00
63111;BME280;49201;53.426;10.300;2022-12-26T00:13:34;100846.72;;;6.48;100.00
63111;BME280;49201;53.426;10.300;2022-12-26T00:16:05;100842.53;;;6.48;100.00
63111;BME280;49201;53.426;10.300;2022-12-26T00:18:30;100850.16;;;6.48;100.00
63111;BME280;49201;53.426;10.300;2022-12-26T00:20:56;100846.72;;;6.46;100.00
63111;BME280;49201;53.426;10.300;2022-12-26T00:23:21;100850.09;;;6.47;100.00
63111;BME280;49201;53.426;10.300;2022-12-26T00:25:47;100860.22;;;6.45;100.00
63111;BME280;49201;53.426;10.300;2022-12-26T00:28:12;100858.59;;;6.47;100.00
63111;BME280;49201;53.426;10.300;2022-12-26T00:30:38;100856.00;;;6.46;100.00
63111;BME280;49201;53.426;10.300;2022-12-26T00:33:03;100850.00;;;6.44;100.00
63111;BME280;49201;53.426;10.300;2022-12-26T00:35:29;100846.53;;;6.42;100.00
63111;BME280;49201;53.426;10.300;2022-12-26T00:37:54;100855.03;;;6.42;100.00
63111;BME280;49201;53.426;10.300;2022-12-26T00:40:20;100848.19;;;6.41;100.00
63111;BME280;49201;53.426;10.300;2022-12-26T00:42:45;100849.72;;;6.36;100.00
63111;BME280;49201;53.426;10.300;2022-12-26T00:45:11;100879.38;;;6.36;100.00
63111;BME280;49201;53.426;10.300;2022-12-26T00:47:36;100876.78;;;6.34;100.00
63111;BME280;49201;53.426;10.300;2022-12-26T00:50:02;100875.88;;;6.34;100.00
63111;BME280;49201;53.426;10.300;2022-12-26T00:52:27;100875.88;;;6.32;100.00
63111;BME280;49201;53.426;10.300;2022-12-26T00:54:53;100872.31;;;6.29;100.00
63111;BME280;49201;53.426;10.300;2022-12-26T00:57:18;100869.03;;;6.31;100.00
63111;BME280;49201;53.426;10.300;2022-12-26T00:59:44;100857.13;;;6.30;100.00
63111;BME280;49201;53.426;10.300;2022-12-26T01:02:09;100857.19;;;6.32;100.00
63111;BME280;49201;53.426;10.300;2022-12-26T01:04:55;100853.00;;;6.34;100.00
63111;BME280;49201;53.426;10.300;2022-12-26T01:07:20;100858.97;;;6.34;100.00
63111;BME280;49201;53.426;10.300;2022-12-26T01:09:45;100857.34;;;6.36;100.00
63111;BME280;49201;53.426;10.300;2022-12-26T01:12:11;100851.50;;;6.39;100.00
63111;BME280;49201;53.426;10.300;2022-12-26T01:14:36;100858.34;;;6.40;100.00
63111;BME280;49201;53.426;10.300;2022-12-26T01:17:02;100864.19;;;6.37;100.00
63111;BME280;49201;53.426;10.300;2022-12-26T01:19:27;100875.25;;;6.39;100.00
63111;BME280;49201;53.426;10.300;2022-12-26T01:21:53;100876.06;;;6.38;100.00
63111;BME280;49201;53.426;10.300;2022-12-26T01:24:18;100870.94;;;6.37;100.00
63111;BME280;49201;53.426;10.300;2022-12-26T01:26:44;100878.63;;;6.38;100.00
63111;BME280;49201;53.426;10.300;2022-12-26T01:29:10;100868.44;;;6.38;100.00
63111;BME280;49201;53.426;10.300;2022-12-26T01:31:35;100871.06;;;6.41;100.00
63111;BME280;49201;53.426;10.300;2022-12-26T01:34:01;100862.66;;;6.42;100.00
63111;BME280;49201;53.426;10.300;2022-12-26T01:36:26;100864.38;;;6.43;100.00
63111;BME280;49201;53.426;10.300;2022-12-26T01:38:52;100861.91;;;6.45;100.00
63111;BME280;49201;53.426;10.300;2022-12-26T01:41:18;100858.53;;;6.46;100.00
63111;BME280;49201;53.426;10.300;2022-12-26T01:46:35;100859.50;;;6.49;100.00
63111;BME280;49201;53.426;10.300;2022-12-26T01:49:15;100857.03;;;6.51;100.00
63111;BME280;49201;53.426;10.300;2022-12-26T01:51:47;100857.91;;;6.51;100.00
63111;BME280;49201;53.426;10.300;2022-12-26T01:54:14;100862.22;;;6.54;100.00
63111;BME280;49201;53.426;10.300;2022-12-26T01:56:41;100867.38;;;6.55;100.00
63111;BME280;49201;53.426;10.300;2022-12-26T01:59:14;100867.38;;;6.55;100.00
63111;BME280;49201;53.426;10.300;2022-12-26T02:05:26;100860.78;;;6.60;100.00
63111;BME280;49201;53.426;10.300;2022-12-26T02:08:20;100865.88;;;6.62;100.00
63111;BME280;49201;53.426;10.300;2022-12-26T02:11:00;100872.69;;;6.61;100.00
63111;BME280;49201;53.426;10.300;2022-12-26T02:13:27;100873.59;;;6.63;100.00
63111;BME280;49201;53.426;10.300;2022-12-26T02:15:55;100871.03;;;6.63;100.00
63111;BME280;49201;53.426;10.300;2022-12-26T02:18:22;100880.50;;;6.67;100.00
63111;BME280;49201;53.426;10.300;2022-12-26T02:23:46;100876.38;;;6.69;100.00
63111;BME280;49201;53.426;10.300;2022-12-26T02:43:59;100882.75;;;6.82;100.00
63111;BME280;49201;53.426;10.300;2022-12-26T02:46:53;100878.50;;;6.82;100.00
63111;BME280;49201;53.426;10.300;2022-12-26T02:52:37;100889.75;;;6.89;100.00
63111;BME280;49201;53.426;10.300;2022-12-26T02:55:26;100884.78;;;6.92;100.00
63111;BME280;49201;53.426;10.300;2022-12-26T02:58:21;100878.88;;;6.93;100.00
63111;BME280;49201;53.426;10.300;2022-12-26T03:01:17;100876.38;;;6.94;100.00
63111;BME280;49201;53.426;10.300;2022-12-26T03:04:05;100876.44;;;6.96;100.00
63111;BME280;49201;53.426;10.300;2022-12-26T03:06:57;100875.63;;;6.97;100.00
63111;BME280;49201;53.426;10.300;2022-12-26T03:09:43;100864.69;;;6.99;100.00
63111;BME280;49201;53.426;10.300;2022-12-26T03:12:35;100869.75;;;6.99;100.00
63111;BME280;49201;53.426;10.300;2022-12-26T03:15:24;100870.66;;;7.00;100.00
63111;BME280;49201;53.426;10.300;2022-12-26T03:17:57;100870.66;;;7.01;100.00
63111;BME280;49201;53.426;10.300;2022-12-26T03:20:28;100875.75;;;7.01;100.00
63111;BME280;49201;53.426;10.300;2022-12-26T03:23:04;100876.63;;;7.02;100.00
63111;BME280;49201;53.426;10.300;2022-12-26T03:28:18;100880.06;;;7.02;100.00
63111;BME280;49201;53.426;10.300;2022-12-26T03:30:44;100875.03;;;7.04;100.00
63111;BME280;49201;53.426;10.300;2022-12-26T03:33:25;100874.16;;;7.03;100.00
63111;BME280;49201;53.426;10.300;2022-12-26T03:38:52;100875.06;;;7.05;100.00
63111;BME280;49201;53.426;10.300;2022-12-26T03:41:30;100882.75;;;7.07;100.00
63111;BME280;49201;53.426;10.300;2022-12-26T03:44:29;100883.69;;;7.09;100.00
63111;BME280;49201;53.426;10.300;2022-12-26T03:48:01;100882.81;;;7.08;100.00
63111;BME280;49201;53.426;10.300;2022-12-26T03:50:34;100882.81;;;7.08;100.00
63111;BME280;49201;53.426;10.300;2022-12-26T03:53:28;100879.44;;;7.09;100.00
63111;BME280;49201;53.426;10.300;2022-12-26T03:56:45;100879.44;;;7.09;100.00
63111;BME280;49201;53.426;10.300;2022-12-26T03:59:52;100880.38;;;7.11;100.00
63111;BME280;49201;53.426;10.300;2022-12-26T04:02:43;100889.69;;;7.11;100.00
63111;BME280;49201;53.426;10.300;2022-12-26T04:05:29;100881.22;;;7.12;100.00
63111;BME280;49201;53.426;10.300;2022-12-26T04:08:20;100885.50;;;7.13;100.00
63111;BME280;49201;53.426;10.300;2022-12-26T04:11:10;100884.69;;;7.14;100.00
63111;BME280;49201;53.426;10.300;2022-12-26T04:14:00;100884.69;;;7.14;100.00
63111;BME280;49201;53.426;10.300;2022-12-26T04:20:01;100881.34;;;7.15;100.00
63111;BME280;49201;53.426;10.300;2022-12-26T04:22:38;100875.34;;;7.14;100.00
63111;BME280;49201;53.426;10.300;2022-12-26T04:25:32;100883.81;;;7.13;100.00
63111;BME280;49201;53.426;10.300;2022-12-26T04:28:19;100889.03;;;7.16;100.00
63111;BME280;49201;53.426;10.300;2022-12-26T04:31:24;100894.13;;;7.16;100.00
63111;BME280;49201;53.426;10.300;2022-12-26T04:34:44;100884.75;;;7.15;100.00
63111;BME280;49201;53.426;10.300;2022-12-26T04:37:31;100889.84;;;7.15;100.00
63111;BME280;49201;53.426;10.300;2022-12-26T04:40:22;100886.47;;;7.16;100.00
63111;BME280;49201;53.426;10.300;2022-12-26T04:43:09;100887.38;;;7.18;100.00
63111;BME280;49201;53.426;10.300;2022-12-26T04:45:55;100885.72;;;7.19;100.00
63111;BME280;49201;53.426;10.300;2022-12-26T04:48:21;100879.81;;;7.20;100.00
63111;BME280;49201;53.426;10.300;2022-12-26T04:51:05;100890.03;;;7.21;100.00
63111;BME280;49201;53.426;10.300;2022-12-26T04:53:30;100895.13;;;7.21;100.00
63111;BME280;49201;53.426;10.300;2022-12-26T04:55:56;100885.00;;;7.23;100.00
63111;BME280;49201;53.426;10.300;2022-12-26T04:58:21;100892.66;;;7.23;100.00
63111;BME280;49201;53.426;10.300;2022-12-26T05:00:49;100879.91;;;7.23;100.00
63111;BME280;49201;53.426;10.300;2022-12-26T05:03:15;100885.03;;;7.24;100.00
63111;BME280;49201;53.426;10.300;2022-12-26T05:05:59;100893.59;;;7.26;100.00
63111;BME280;49201;53.426;10.300;2022-12-26T05:08:45;100901.31;;;7.28;100.00
63111;BME280;49201;53.426;10.300;2022-12-26T05:11:32;100897.94;;;7.29;100.00
63111;BME280;49201;53.426;10.300;2022-12-26T05:13:59;100895.38;;;7.29;100.00
63111;BME280;49201;53.426;10.300;2022-12-26T05:16:25;100894.63;;;7.31;100.00
63111;BME280;49201;53.426;10.300;2022-12-26T05:19:11;100897.22;;;7.33;100.00
63111;BME280;49201;53.426;10.300;2022-12-26T05:21:57;100894.72;;;7.34;100.00
63111;BME280;49201;53.426;10.300;2022-12-26T05:24:41;100908.41;;;7.38;100.00
63111;BME280;49201;53.426;10.300;2022-12-26T05:27:39;100903.34;;;7.38;100.00
63111;BME280;49201;53.426;10.300;2022-12-26T05:30:24;100903.47;;;7.42;100.00
63111;BME280;49201;53.426;10.300;2022-12-26T05:32:49;100906.94;;;7.44;100.00
63111;BME280;49201;53.426;10.300;2022-12-26T05:35:34;100904.44;;;7.46;100.00
63111;BME280;49201;53.426;10.300;2022-12-26T05:38:00;100910.44;;;7.48;100.00
63111;BME280;49201;53.426;10.300;2022-12-26T05:40:25;100902.09;;;7.52;100.00
63111;BME280;49201;53.426;10.300;2022-12-26T05:42:51;100905.59;;;7.55;100.00
63111;BME280;49201;53.426;10.300;2022-12-26T05:45:16;100904.78;;;7.56;100.00
63111;BME280;49201;53.426;10.300;2022-12-26T05:47:42;100904.00;;;7.59;100.00
63111;BME280;49201;53.426;10.300;2022-12-26T05:50:07;100904.88;;;7.59;100.00
63111;BME280;49201;53.426;10.300;2022-12-26T05:52:33;100893.91;;;7.62;100.00
63111;BME280;49201;53.426;10.300;2022-12-26T05:54:58;100886.34;;;7.63;100.00
63111;BME280;49201;53.426;10.300;2022-12-26T05:57:24;100882.97;;;7.64;100.00
63111;BME280;49201;53.426;10.300;2022-12-26T05:59:49;100874.47;;;7.64;100.00
63111;BME280;49201;53.426;10.300;2022-12-26T06:02:15;100878.78;;;7.66;100.00
63111;BME280;49201;53.426;10.300;2022-12-26T06:04:40;100880.53;;;7.67;100.00
63111;BME280;49201;53.426;10.300;2022-12-26T06:07:05;100877.97;;;7.67;100.00
63111;BME280;49201;53.426;10.300;2022-12-26T06:09:31;100882.19;;;7.67;100.00
63111;BME280;49201;53.426;10.300;2022-12-26T06:11:56;100883.97;;;7.69;100.00
63111;BME280;49201;53.426;10.300;2022-12-26T06:14:22;100888.22;;;7.69;100.00
63111;BME280;49201;53.426;10.300;2022-12-26T06:16:48;100881.41;;;7.69;100.00
63111;BME280;49201;53.426;10.300;2022-12-26T06:19:13;100901.81;;;7.69;100.00
63111;BME280;49201;53.426;10.300;2022-12-26T06:21:38;100890.00;;;7.71;100.00
63111;BME280;49201;53.426;10.300;2022-12-26T06:24:04;100896.81;;;7.72;100.00
63111;BME280;49201;53.426;10.300;2022-12-26T06:26:29;100889.16;;;7.72;100.00
63111;BME280;49201;53.426;10.300;2022-12-26T06:28:55;100884.91;;;7.73;100.00
63111;BME280;49201;53.426;10.300;2022-12-26T06:31:22;100890.91;;;7.73;100.00
63111;BME280;49201;53.426;10.300;2022-12-26T06:33:55;100891.78;;;7.74;100.00
63111;BME280;49201;53.426;10.300;2022-12-26T06:36:24;100894.38;;;7.75;100.00
63111;BME280;49201;53.426;10.300;2022-12-26T06:38:51;100893.56;;;7.76;100.00
63111;BME280;49201;53.426;10.300;2022-12-26T06:41:18;100902.97;;;7.79;100.00
63111;BME280;49201;53.426;10.300;2022-12-26T06:43:44;100903.75;;;7.76;100.00
63111;BME280;49201;53.426;10.300;2022-12-26T06:46:12;100909.75;;;7.78;100.00
63111;BME280;49201;53.426;10.300;2022-12-26T06:48:38;100921.66;;;7.79;100.00
63111;BME280;49201;53.426;10.300;2022-12-26T06:51:05;100925.97;;;7.80;100.00
63111;BME280;49201;53.426;10.300;2022-12-26T06:53:32;100930.25;;;7.81;100.00
63111;BME280;49201;53.426;10.300;2022-12-26T06:56:11;100925.19;;;7.83;100.00
63111;BME280;49201;53.426;10.300;2022-12-26T06:58:37;100935.38;;;7.83;100.00
63111;BME280;49201;53.426;10.300;2022-12-26T07:01:16;100937.94;;;7.83;100.00
63111;BME280;49201;53.426;10.300;2022-12-26T07:03:43;100935.41;;;7.84;100.00
63111;BME280;49201;53.426;10.300;2022-12-26T07:06:19;100938.84;;;7.85;100.00
63111;BME280;49201;53.426;10.300;2022-12-26T07:08:45;100944.88;;;7.87;100.00
63111;BME280;49201;53.426;10.300;2022-12-26T07:11:21;100959.34;;;7.88;100.00
63111;BME280;49201;53.426;10.300;2022-12-26T07:13:47;100968.75;;;7.90;100.00
63111;BME280;49201;53.426;10.300;2022-12-26T07:16:13;100967.88;;;7.90;100.00
63111;BME280;49201;53.426;10.300;2022-12-26T07:18:39;100970.50;;;7.91;100.00
63111;BME280;49201;53.426;10.300;2022-12-26T07:21:09;100971.44;;;7.95;100.00
63111;BME280;49201;53.426;10.300;2022-12-26T07:23:35;100971.50;;;7.96;100.00
63111;BME280;49201;53.426;10.300;2022-12-26T07:26:00;100968.19;;;7.99;100.00
63111;BME280;49201;53.426;10.300;2022-12-26T07:28:27;100964.00;;;8.01;100.00
63111;BME280;49201;53.426;10.300;2022-12-26T07:30:53;100964.09;;;8.04;100.00
63111;BME280;49201;53.426;10.300;2022-12-26T07:33:18;100968.34;;;8.05;100.00
63111;BME280;49201;53.426;10.300;2022-12-26T07:35:44;100977.00;;;8.08;100.00
63111;BME280;49201;53.426;10.300;2022-12-26T07:38:09;100968.53;;;8.09;100.00
63111;BME280;49201;53.426;10.300;2022-12-26T07:40:35;100974.44;;;8.08;100.00
63111;BME280;49201;53.426;10.300;2022-12-26T07:43:01;100970.25;;;8.10;100.00
63111;BME280;49201;53.426;10.300;2022-12-26T07:45:26;100960.91;;;8.11;100.00
63111;BME280;49201;53.426;10.300;2022-12-26T07:47:53;100961.81;;;8.13;100.00
63111;BME280;49201;53.426;10.300;2022-12-26T07:50:18;100965.25;;;8.13;100.00
63111;BME280;49201;53.426;10.300;2022-12-26T07:52:44;100954.22;;;8.14;100.00
63111;BME280;49201;53.426;10.300;2022-12-26T07:55:11;100947.47;;;8.16;100.00
63111;BME280;49201;53.426;10.300;2022-12-26T07:57:36;100941.56;;;8.17;100.00
63111;BME280;49201;53.426;10.300;2022-12-26T08:00:03;100934.72;;;8.16;100.00
63111;BME280;49201;53.426;10.300;2022-12-26T08:02:37;100933.94;;;8.17;100.00
63111;BME280;49201;53.426;10.300;2022-12-26T08:05:03;100938.31;;;8.21;100.00
63111;BME280;49201;53.426;10.300;2022-12-26T08:07:28;100919.47;;;8.18;100.00
63111;BME280;49201;53.426;10.300;2022-12-26T08:09:53;100909.22;;;8.16;100.00
63111;BME280;49201;53.426;10.300;2022-12-26T08:12:19;100906.59;;;8.13;100.00
63111;BME280;49201;53.426;10.300;2022-12-26T08:14:46;100913.31;;;8.11;100.00
63111;BME280;49201;53.426;10.300;2022-12-26T08:17:13;100909.03;;;8.10;100.00
63111;BME280;49201;53.426;10.300;2022-12-26T08:19:38;100908.16;;;8.10;100.00
63111;BME280;49201;53.426;10.300;2022-12-26T08:22:04;100910.81;;;8.13;100.00
63111;BME280;49201;53.426;10.300;2022-12-26T08:24:29;100904.13;;;8.16;100.00
63111;BME280;49201;53.426;10.300;2022-12-26T08:26:55;100905.88;;;8.17;100.00
63111;BME280;49201;53.426;10.300;2022-12-26T08:29:20;100915.25;;;8.18;100.00
63111;BME280;49201;53.426;10.300;2022-12-26T08:31:45;100927.31;;;8.22;100.00
63111;BME280;49201;53.426;10.300;2022-12-26T08:34:11;100922.22;;;8.22;100.00
63111;BME280;49201;53.426;10.300;2022-12-26T08:36:37;100931.63;;;8.25;100.00
63111;BME280;49201;53.426;10.300;2022-12-26T08:39:03;100920.56;;;8.24;100.00
63111;BME280;49201;53.426;10.300;2022-12-26T08:41:29;100924.06;;;8.28;100.00
63111;BME280;49201;53.426;10.300;2022-12-26T08:43:55;100932.59;;;8.28;100.00
63111;BME280;49201;53.426;10.300;2022-12-26T08:46:20;100937.72;;;8.30;100.00
63111;BME280;49201;53.426;10.300;2022-12-26T08:48:47;100941.13;;;8.30;100.00
63111;BME280;49201;53.426;10.300;2022-12-26T08:51:20;100937.78;;;8.31;100.00
63111;BME280;49201;53.426;10.300;2022-12-26T08:53:47;100951.44;;;8.33;100.00
63111;BME280;49201;53.426;10.300;2022-12-26T08:56:16;100952.38;;;8.35;100.00
63111;BME280;49201;53.426;10.300;2022-12-26T08:58:42;100953.22;;;8.36;100.00
63111;BME280;49201;53.426;10.300;2022-12-26T09:01:19;100941.34;;;8.36;100.00
63111;BME280;49201;53.426;10.300;2022-12-26T09:03:45;100945.59;;;8.37;100.00
63111;BME280;49201;53.426;10.300;2022-12-26T09:06:12;100942.28;;;8.40;100.00
63111;BME280;49201;53.426;10.300;2022-12-26T09:08:38;100935.72;;;8.48;100.00
63111;BME280;49201;53.426;10.300;2022-12-26T09:11:07;100941.78;;;8.51;100.00
63111;BME280;49201;53.426;10.300;2022-12-26T09:13:34;100950.31;;;8.53;100.00
63111;BME280;49201;53.426;10.300;2022-12-26T09:16:17;100950.56;;;8.61;100.00
63111;BME280;49201;53.426;10.300;2022-12-26T09:18:44;100958.25;;;8.62;100.00
63111;BME280;49201;53.426;10.300;2022-12-26T09:21:11;100971.00;;;8.62;100.00
63111;BME280;49201;53.426;10.300;2022-12-26T09:23:37;100965.09;;;8.63;100.00
63111;BME280;49201;53.426;10.300;2022-12-26T09:28:31;100964.41;;;8.69;100.00
63111;BME280;49201;53.426;10.300;2022-12-26T09:31:04;100963.66;;;8.73;100.00
63111;BME280;49201;53.426;10.300;2022-12-26T09:33:30;100975.69;;;8.77;100.00
63111;BME280;49201;53.426;10.300;2022-12-26T09:35:58;100974.91;;;8.79;100.00
63111;BME280;49201;53.426;10.300;2022-12-26T09:38:24;100976.66;;;8.80;100.00
63111;BME280;49201;53.426;10.300;2022-12-26T09:49:02;100970.13;;;8.90;100.00
63111;BME280;49201;53.426;10.300;2022-12-26T09:51:30;100974.44;;;8.92;100.00
63111;BME280;49201;53.426;10.300;2022-12-26T09:53:59;100977.91;;;8.94;100.00
63111;BME280;49201;53.426;10.300;2022-12-26T09:56:26;100983.97;;;8.98;100.00
63111;BME280;49201;53.426;10.300;2022-12-26T09:58:56;100984.91;;;9.01;100.00
63111;BME280;49201;53.426;10.300;2022-12-26T10:01:29;100984.09;;;9.02;100.00
63111;BME280;49201;53.426;10.300;2022-12-26T10:03:57;100988.38;;;9.03;100.00
63111;BME280;49201;53.426;10.300;2022-12-26T10:06:33;100991.91;;;9.07;100.00
63111;BME280;49201;53.426;10.300;2022-12-26T10:09:17;100987.63;;;9.07;100.00
63111;BME280;49201;53.426;10.300;2022-12-26T10:11:57;100983.34;;;9.06;100.00
63111;BME280;49201;53.426;10.300;2022-12-26T10:14:31;100973.97;;;9.05;100.00
63111;BME280;49201;53.426;10.300;2022-12-26T10:17:12;100971.47;;;9.07;100.00
63111;BME280;49201;53.426;10.300;2022-12-26T10:25:00;100960.53;;;9.12;100.00
63111;BME280;49201;53.426;10.300;2022-12-26T10:27:30;100954.53;;;9.10;100.00
63111;BME280;49201;53.426;10.300;2022-12-26T10:30:05;100945.94;;;9.08;100.00
63111;BME280;49201;53.426;10.300;2022-12-26T10:34:58;100946.13;;;9.14;100.00
63111;BME280;49201;53.426;10.300;2022-12-26T10:37:28;100938.47;;;9.14;100.00
63111;BME280;49201;53.426;10.300;2022-12-26T10:45:15;100936.00;;;9.19;100.00
63111;BME280;49201;53.426;10.300;2022-12-26T10:47:51;100941.16;;;9.20;100.00
63111;BME280;49201;53.426;10.300;2022-12-26T10:50:22;100953.03;;;9.18;100.00
63111;BME280;49201;53.426;10.300;2022-12-26T10:52:49;100951.28;;;9.17;100.00
63111;BME280;49201;53.426;10.300;2022-12-26T10:55:18;100941.94;;;9.18;100.00
63111;BME280;49201;53.426;10.300;2022-12-26T10:57:47;100945.44;;;9.21;100.00
63111;BME280;49201;53.426;10.300;2022-12-26T11:00:20;100927.94;;;9.35;100.00
63111;BME280;49201;53.426;10.300;2022-12-26T11:05:30;100940.72;;;9.69;100.00
63111;BME280;49201;53.426;10.300;2022-12-26T11:08:13;100934.25;;;9.49;100.00
63111;BME280;49201;53.426;10.300;2022-12-26T11:10:41;100931.53;;;9.43;100.00
63111;BME280;49201;53.426;10.300;2022-12-26T11:13:20;100942.47;;;9.37;100.00
63111;BME280;49201;53.426;10.300;2022-12-26T11:15:49;100929.66;;;9.36;100.00
63111;BME280;49201;53.426;10.300;2022-12-26T11:18:25;100932.25;;;9.39;100.00
63111;BME280;49201;53.426;10.300;2022-12-26T11:20:52;100926.41;;;9.41;100.00
63111;BME280;49201;53.426;10.300;2022-12-26T11:23:28;100921.28;;;9.43;100.00
63111;BME280;49201;53.426;10.300;2022-12-26T11:25:57;100919.47;;;9.39;100.00
63111;BME280;49201;53.426;10.300;2022-12-26T11:28:35;100934.81;;;9.37;100.00
63111;BME280;49201;53.426;10.300;2022-12-26T11:31:04;100927.13;;;9.37;100.00
63111;BME280;49201;53.426;10.300;2022-12-26T11:33:34;100917.72;;;9.35;100.00
63111;BME280;49201;53.426;10.300;2022-12-26T11:41:16;100914.50;;;9.43;100.00
63111;BME280;49201;53.426;10.300;2022-12-26T11:46:41;100898.34;;;9.44;100.00
63111;BME280;49201;53.426;10.300;2022-12-26T11:49:36;100900.09;;;9.47;100.00
63111;BME280;49201;53.426;10.300;2022-12-26T11:54:54;100903.50;;;9.46;100.00
63111;BME280;49201;53.426;10.300;2022-12-26T11:57:32;100889.84;;;9.45;100.00
63111;BME280;49201;53.426;10.300;2022-12-26T12:00:18;100888.19;;;9.47;100.00
63111;BME280;49201;53.426;10.300;2022-12-26T12:02:44;100882.22;;;9.47;100.00
63111;BME280;49201;53.426;10.300;2022-12-26T12:08:01;100884.72;;;9.45;100.00
63111;BME280;49201;53.426;10.300;2022-12-26T12:10:38;100872.81;;;9.46;100.00
63111;BME280;49201;53.426;10.300;2022-12-26T12:13:20;100876.31;;;9.49;100.00
63111;BME280;49201;53.426;10.300;2022-12-26T12:28:32;100867.75;;;9.47;100.00
63111;BME280;49201;53.426;10.300;2022-12-26T12:42:28;100865.59;;;9.28;100.00
63111;BME280;49201;53.426;10.300;2022-12-26T12:45:25;100862.19;;;9.29;100.00
63111;BME280;49201;53.426;10.300;2022-12-26T12:55:54;100867.22;;;9.26;100.00
63111;BME280;49201;53.426;10.300;2022-12-26T12:58:36;100868.94;;;9.27;100.00
63111;BME280;49201;53.426;10.300;2022-12-26T13:01:11;100863.06;;;9.30;100.00
63111;BME280;49201;53.426;10.300;2022-12-26T13:03:44;100864.78;;;9.31;100.00
63111;BME280;49201;53.426;10.300;2022-12-26T13:06:24;100860.53;;;9.31;100.00
63111;BME280;49201;53.426;10.300;2022-12-26T13:11:33;100869.22;;;9.38;100.00
63111;BME280;49201;53.426;10.300;2022-12-26T13:14:05;100865.81;;;9.37;100.00
63111;BME280;49201;53.426;10.300;2022-12-26T13:16:42;100864.88;;;9.35;100.00
63111;BME280;49201;53.426;10.300;2022-12-26T13:19:19;100853.84;;;9.36;100.00
63111;BME280;49201;53.426;10.300;2022-12-26T13:21:48;100859.13;;;9.42;100.00
63111;BME280;49201;53.426;10.300;2022-12-26T13:24:30;100856.56;;;9.42;100.00
63111;BME280;49201;53.426;10.300;2022-12-26T13:27:03;100863.41;;;9.43;100.00
63111;BME280;49201;53.426;10.300;2022-12-26T13:29:35;100872.72;;;9.41;100.00
63111;BME280;49201;53.426;10.300;2022-12-26T13:32:03;100869.25;;;9.39;100.00
63111;BME280;49201;53.426;10.300;2022-12-26T13:34:30;100883.78;;;9.42;100.00
63111;BME280;49201;53.426;10.300;2022-12-26T13:36:59;100894.94;;;9.44;100.00
63111;BME280;49201;53.426;10.300;2022-12-26T13:41:57;100884.66;;;9.42;100.00
63111;BME280;49201;53.426;10.300;2022-12-26T13:44:42;100898.16;;;9.37;100.00
63111;BME280;49201;53.426;10.300;2022-12-26T13:47:37;100895.47;;;9.31;100.00
63111;BME280;49201;53.426;10.300;2022-12-26T13:56:03;100918.03;;;9.16;98.17
63111;BME280;49201;53.426;10.300;2022-12-26T14:07:37;100967.56;;;8.90;94.74
63111;BME280;49201;53.426;10.300;2022-12-26T14:10:20;100974.13;;;8.82;92.84
63111;BME280;49201;53.426;10.300;2022-12-26T14:15:37;101001.97;;;8.73;92.89
63111;BME280;49201;53.426;10.300;2022-12-26T14:24:00;101026.59;;;8.44;92.96
63111;BME280;49201;53.426;10.300;2022-12-26T14:40:55;101053.56;;;8.11;93.60
63111;BME280;49201;53.426;10.300;2022-12-26T14:43:10;101062.63;;;8.02;95.09
63111;BME280;49201;53.426;10.300;2022-12-26T14:45:42;101071.81;;;7.97;94.82
63111;BME280;49201;53.426;10.300;2022-12-26T14:50:47;101077.25;;;7.82;95.87
63111;BME280;49201;53.426;10.300;2022-12-26T14:58:44;101101.00;;;7.58;99.68
63111;BME280;49201;53.426;10.300;2022-12-26T15:03:59;101106.47;;;7.45;100.00
63111;BME280;49201;53.426;10.300;2022-12-26T15:15:36;101144.91;;;7.27;100.00
63111;BME280;49201;53.426;10.300;2022-12-26T15:32:26;101185.00;;;7.11;98.69
63111;BME280;49201;53.426;10.300;2022-12-26T15:40:22;101189.13;;;7.07;97.43
63111;BME280;49201;53.426;10.300;2022-12-26T15:43:22;101187.25;;;7.03;97.13
63111;BME280;49201;53.426;10.300;2022-12-26T15:51:13;101201.13;;;6.89;96.75
63111;BME280;49201;53.426;10.300;2022-12-26T15:54:03;101197.75;;;6.90;98.14
63111;BME280;49201;53.426;10.300;2022-12-26T16:02:31;101207.50;;;6.80;98.22
63111;BME280;49201;53.426;10.300;2022-12-26T16:05:12;101210.56;;;6.71;98.66
63111;BME280;49201;53.426;10.300;2022-12-26T16:08:01;101219.56;;;6.63;97.96
63111;BME280;49201;53.426;10.300;2022-12-26T16:10:32;101221.84;;;6.57;98.78
63111;BME280;49201;53.426;10.300;2022-12-26T16:20:39;101235.91;;;6.29;97.48
63111;BME280;49201;53.426;10.300;2022-12-26T16:23:25;101238.84;;;6.19;96.88
63111;BME280;49201;53.426;10.300;2022-12-26T16:25:55;101239.44;;;6.13;96.98
63111;BME280;49201;53.426;10.300;2022-12-26T16:30:52;101240.47;;;5.98;97.00
63111;BME280;49201;53.426;10.300;2022-12-26T16:33:18;101256.50;;;5.97;96.95
63111;BME280;49201;53.426;10.300;2022-12-26T16:35:43;101252.38;;;5.99;96.71
63111;BME280;49201;53.426;10.300;2022-12-26T16:38:17;101248.97;;;5.98;96.11
63111;BME280;49201;53.426;10.300;2022-12-26T16:40:48;101258.06;;;5.93;96.05
63111;BME280;49201;53.426;10.300;2022-12-26T16:45:47;101264.41;;;5.84;95.30